sensor_id;sensor_type;location;lat;lon;timestamp;P1;durP1;ratioP1;P2;durP2;ratioP2
33403;SDS011;19751;40.274;18.268;2023-02-28T00:01:13;40.58;;;8.00;;
33403;SDS011;19751;40.274;18.268;2023-02-28T00:03:40;46.28;;;7.55;;
33403;SDS011;19751;40.274;18.268;2023-02-28T00:06:06;77.20;;;10.27;;
33403;SDS011;19751;40.274;18.268;2023-02-28T00:08:34;51.03;;;11.52;;
33403;SDS011;19751;40.274;18.268;2023-02-28T00:11:04;49.33;;;7.60;;
33403;SDS011;19751;40.274;18.268;2023-02-28T00:13:32;37.22;;;9.02;;
33403;SDS011;19751;40.274;18.268;2023-02-28T00:16:00;46.40;;;7.57;;
33403;SDS011;19751;40.274;18.268;2023-02-28T00:18:28;43.67;;;9.90;;
33403;SDS011;19751;40.274;18.268;2023-02-28T00:20:53;46.55;;;8.35;;
33403;SDS011;19751;40.274;18.268;2023-02-28T00:23:19;44.97;;;10.40;;
33403;SDS011;19751;40.274;18.268;2023-02-28T00:25:44;39.90;;;8.68;;
33403;SDS011;19751;40.274;18.268;2023-02-28T00:28:10;39.47;;;8.48;;
33403;SDS011;19751;40.274;18.268;2023-02-28T00:30:35;38.90;;;8.15;;
33403;SDS011;19751;40.274;18.268;2023-02-28T00:33:01;47.08;;;8.93;;
33403;SDS011;19751;40.274;18.268;2023-02-28T00:35:26;40.65;;;7.13;;
33403;SDS011;19751;40.274;18.268;2023-02-28T00:37:52;47.85;;;7.32;;
33403;SDS011;19751;40.274;18.268;2023-02-28T00:40:17;37.65;;;8.70;;
33403;SDS011;19751;40.274;18.268;2023-02-28T00:42:42;53.60;;;11.32;;
33403;SDS011;19751;40.274;18.268;2023-02-28T00:45:08;42.90;;;7.20;;
33403;SDS011;19751;40.274;18.268;2023-02-28T00:47:34;39.38;;;8.43;;
33403;SDS011;19751;40.274;18.268;2023-02-28T00:49:59;30.58;;;7.28;;
33403;SDS011;19751;40.274;18.268;2023-02-28T00:52:25;68.57;;;12.20;;
33403;SDS011;19751;40.274;18.268;2023-02-28T00:54:50;45.38;;;10.20;;
33403;SDS011;19751;40.274;18.268;2023-02-28T00:57:16;61.95;;;10.23;;
33403;SDS011;19751;40.274;18.268;2023-02-28T00:59:41;71.03;;;11.82;;
33403;SDS011;19751;40.274;18.268;2023-02-28T01:02:07;41.28;;;8.25;;
33403;SDS011;19751;40.274;18.268;2023-02-28T01:04:32;53.28;;;9.50;;
33403;SDS011;19751;40.274;18.268;2023-02-28T01:06:58;66.15;;;9.20;;
33403;SDS011;19751;40.274;18.268;2023-02-28T01:09:23;61.35;;;9.88;;
33403;SDS011;19751;40.274;18.268;2023-02-28T01:11:49;66.03;;;9.27;;
33403;SDS011;19751;40.274;18.268;2023-02-28T01:14:15;82.65;;;12.57;;
33403;SDS011;19751;40.274;18.268;2023-02-28T01:16:42;77.28;;;11.07;;
33403;SDS011;19751;40.274;18.268;2023-02-28T01:19:08;56.70;;;10.15;;
33403;SDS011;19751;40.274;18.268;2023-02-28T01:21:34;72.00;;;8.95;;
33403;SDS011;19751;40.274;18.268;2023-02-28T01:24:00;51.58;;;10.30;;
33403;SDS011;19751;40.274;18.268;2023-02-28T01:26:26;62.35;;;10.98;;
33403;SDS011;19751;40.274;18.268;2023-02-28T01:28:52;40.25;;;9.82;;
33403;SDS011;19751;40.274;18.268;2023-02-28T01:31:18;42.33;;;9.07;;
33403;SDS011;19751;40.274;18.268;2023-02-28T01:33:44;56.15;;;12.73;;
33403;SDS011;19751;40.274;18.268;2023-02-28T01:36:18;55.05;;;9.57;;
33403;SDS011;19751;40.274;18.268;2023-02-28T01:38:46;60.60;;;8.25;;
33403;SDS011;19751;40.274;18.268;2023-02-28T01:41:30;53.45;;;8.93;;
33403;SDS011;19751;40.274;18.268;2023-02-28T01:44:03;34.72;;;7.72;;
33403;SDS011;19751;40.274;18.268;2023-02-28T01:46:51;32.65;;;7.50;;
33403;SDS011;19751;40.274;18.268;2023-02-28T01:49:16;50.67;;;8.05;;
33403;SDS011;19751;40.274;18.268;2023-02-28T01:54:16;37.25;;;6.13;;
33403;SDS011;19751;40.274;18.268;2023-02-28T01:56:51;46.00;;;10.10;;
33403;SDS011;19751;40.274;18.268;2023-02-28T01:59:34;65.13;;;10.18;;
33403;SDS011;19751;40.274;18.268;2023-02-28T02:02:05;37.17;;;8.57;;
33403;SDS011;19751;40.274;18.268;2023-02-28T02:04:38;45.20;;;10.07;;
33403;SDS011;19751;40.274;18.268;2023-02-28T02:07:11;40.65;;;7.88;;
33403;SDS011;19751;40.274;18.268;2023-02-28T02:09:39;42.92;;;8.63;;
33403;SDS011;19751;40.274;18.268;2023-02-28T02:12:07;49.47;;;7.40;;
33403;SDS011;19751;40.274;18.268;2023-02-28T02:18:05;56.05;;;7.47;;
33403;SDS011;19751;40.274;18.268;2023-02-28T02:20:51;61.90;;;11.02;;
33403;SDS011;19751;40.274;18.268;2023-02-28T02:42:31;51.95;;;9.15;;
33403;SDS011;19751;40.274;18.268;2023-02-28T02:45:09;39.08;;;6.90;;
33403;SDS011;19751;40.274;18.268;2023-02-28T02:47:40;49.15;;;10.60;;
33403;SDS011;19751;40.274;18.268;2023-02-28T02:50:08;63.50;;;10.80;;
33403;SDS011;19751;40.274;18.268;2023-02-28T02:52:41;56.78;;;10.20;;
33403;SDS011;19751;40.274;18.268;2023-02-28T02:55:12;70.53;;;11.43;;
33403;SDS011;19751;40.274;18.268;2023-02-28T02:57:45;42.00;;;7.28;;
33403;SDS011;19751;40.274;18.268;2023-02-28T03:00:22;73.75;;;9.68;;
33403;SDS011;19751;40.274;18.268;2023-02-28T03:02:52;45.90;;;8.25;;
33403;SDS011;19751;40.274;18.268;2023-02-28T03:05:31;49.95;;;8.93;;
33403;SDS011;19751;40.274;18.268;2023-02-28T03:08:11;40.03;;;8.20;;
33403;SDS011;19751;40.274;18.268;2023-02-28T03:10:43;50.95;;;7.90;;
33403;SDS011;19751;40.274;18.268;2023-02-28T03:21:58;40.28;;;8.32;;
33403;SDS011;19751;40.274;18.268;2023-02-28T03:26:52;42.05;;;7.75;;
33403;SDS011;19751;40.274;18.268;2023-02-28T03:29:30;32.28;;;7.30;;
33403;SDS011;19751;40.274;18.268;2023-02-28T03:32:05;51.13;;;7.88;;
33403;SDS011;19751;40.274;18.268;2023-02-28T03:34:34;44.10;;;8.82;;
33403;SDS011;19751;40.274;18.268;2023-02-28T03:37:08;56.30;;;8.55;;
33403;SDS011;19751;40.274;18.268;2023-02-28T03:39:49;48.85;;;7.90;;
33403;SDS011;19751;40.274;18.268;2023-02-28T03:42:22;54.55;;;8.85;;
33403;SDS011;19751;40.274;18.268;2023-02-28T03:44:53;40.63;;;8.13;;
33403;SDS011;19751;40.274;18.268;2023-02-28T03:47:24;46.65;;;7.22;;
33403;SDS011;19751;40.274;18.268;2023-02-28T03:49:57;46.08;;;8.15;;
33403;SDS011;19751;40.274;18.268;2023-02-28T03:52:29;45.63;;;7.40;;
33403;SDS011;19751;40.274;18.268;2023-02-28T03:55:00;56.75;;;11.02;;
33403;SDS011;19751;40.274;18.268;2023-02-28T03:57:38;55.78;;;9.48;;
33403;SDS011;19751;40.274;18.268;2023-02-28T04:02:58;47.50;;;9.05;;
33403;SDS011;19751;40.274;18.268;2023-02-28T04:05:24;55.35;;;7.97;;
33403;SDS011;19751;40.274;18.268;2023-02-28T04:07:50;47.95;;;7.60;;
33403;SDS011;19751;40.274;18.268;2023-02-28T04:10:16;54.22;;;9.25;;
33403;SDS011;19751;40.274;18.268;2023-02-28T04:12:42;67.00;;;12.00;;
33403;SDS011;19751;40.274;18.268;2023-02-28T04:15:07;66.47;;;11.32;;
33403;SDS011;19751;40.274;18.268;2023-02-28T04:17:33;58.55;;;9.18;;
33403;SDS011;19751;40.274;18.268;2023-02-28T04:19:59;37.25;;;6.72;;
33403;SDS011;19751;40.274;18.268;2023-02-28T04:22:24;54.63;;;8.82;;
33403;SDS011;19751;40.274;18.268;2023-02-28T04:24:52;55.70;;;8.85;;
33403;SDS011;19751;40.274;18.268;2023-02-28T04:27:19;54.60;;;9.25;;
33403;SDS011;19751;40.274;18.268;2023-02-28T04:29:46;55.53;;;10.55;;
33403;SDS011;19751;40.274;18.268;2023-02-28T04:32:11;42.50;;;8.75;;
33403;SDS011;19751;40.274;18.268;2023-02-28T04:34:37;47.95;;;8.27;;
33403;SDS011;19751;40.274;18.268;2023-02-28T04:37:03;60.13;;;8.60;;
33403;SDS011;19751;40.274;18.268;2023-02-28T04:39:28;54.35;;;10.55;;
33403;SDS011;19751;40.274;18.268;2023-02-28T04:41:54;44.63;;;7.40;;
33403;SDS011;19751;40.274;18.268;2023-02-28T04:44:21;46.42;;;9.35;;
33403;SDS011;19751;40.274;18.268;2023-02-28T04:46:47;48.92;;;9.32;;
33403;SDS011;19751;40.274;18.268;2023-02-28T04:49:14;46.90;;;8.15;;
33403;SDS011;19751;40.274;18.268;2023-02-28T04:51:40;56.65;;;9.48;;
33403;SDS011;19751;40.274;18.268;2023-02-28T04:54:06;43.03;;;9.40;;
33403;SDS011;19751;40.274;18.268;2023-02-28T04:56:32;48.00;;;10.05;;
33403;SDS011;19751;40.274;18.268;2023-02-28T04:58:58;51.95;;;9.65;;
33403;SDS011;19751;40.274;18.268;2023-02-28T05:01:28;59.15;;;7.10;;
33403;SDS011;19751;40.274;18.268;2023-02-28T05:03:55;47.08;;;8.82;;
33403;SDS011;19751;40.274;18.268;2023-02-28T05:06:23;46.13;;;7.30;;
33403;SDS011;19751;40.274;18.268;2023-02-28T05:08:56;44.00;;;8.57;;
33403;SDS011;19751;40.274;18.268;2023-02-28T05:13:48;50.28;;;8.18;;
33403;SDS011;19751;40.274;18.268;2023-02-28T05:16:14;60.88;;;11.38;;
33403;SDS011;19751;40.274;18.268;2023-02-28T05:18:40;48.05;;;8.45;;
33403;SDS011;19751;40.274;18.268;2023-02-28T05:21:12;53.22;;;8.98;;
33403;SDS011;19751;40.274;18.268;2023-02-28T05:23:51;43.80;;;7.00;;
33403;SDS011;19751;40.274;18.268;2023-02-28T05:26:17;35.03;;;7.25;;
33403;SDS011;19751;40.274;18.268;2023-02-28T05:28:43;36.47;;;6.63;;
33403;SDS011;19751;40.274;18.268;2023-02-28T05:31:12;43.33;;;7.63;;
33403;SDS011;19751;40.274;18.268;2023-02-28T05:33:40;47.13;;;8.38;;
33403;SDS011;19751;40.274;18.268;2023-02-28T05:36:06;36.55;;;7.05;;
33403;SDS011;19751;40.274;18.268;2023-02-28T05:38:32;46.53;;;8.45;;
33403;SDS011;19751;40.274;18.268;2023-02-28T05:40:57;38.88;;;7.50;;
33403;SDS011;19751;40.274;18.268;2023-02-28T05:43:24;41.45;;;7.55;;
33403;SDS011;19751;40.274;18.268;2023-02-28T05:45:50;41.75;;;9.10;;
33403;SDS011;19751;40.274;18.268;2023-02-28T05:48:17;42.08;;;10.07;;
33403;SDS011;19751;40.274;18.268;2023-02-28T05:50:43;35.47;;;6.68;;
33403;SDS011;19751;40.274;18.268;2023-02-28T05:53:11;45.92;;;9.55;;
33403;SDS011;19751;40.274;18.268;2023-02-28T05:55:36;48.63;;;12.77;;
33403;SDS011;19751;40.274;18.268;2023-02-28T05:58:02;47.95;;;11.13;;
33403;SDS011;19751;40.274;18.268;2023-02-28T06:00:28;38.50;;;8.80;;
33403;SDS011;19751;40.274;18.268;2023-02-28T06:02:54;37.83;;;7.32;;
33403;SDS011;19751;40.274;18.268;2023-02-28T06:05:23;39.25;;;7.70;;
33403;SDS011;19751;40.274;18.268;2023-02-28T06:07:49;42.33;;;8.07;;
33403;SDS011;19751;40.274;18.268;2023-02-28T06:10:15;55.42;;;11.60;;
33403;SDS011;19751;40.274;18.268;2023-02-28T06:12:40;51.08;;;12.10;;
33403;SDS011;19751;40.274;18.268;2023-02-28T06:15:07;49.38;;;11.57;;
33403;SDS011;19751;40.274;18.268;2023-02-28T06:17:36;62.72;;;13.57;;
33403;SDS011;19751;40.274;18.268;2023-02-28T06:20:02;46.53;;;10.77;;
33403;SDS011;19751;40.274;18.268;2023-02-28T06:22:28;37.60;;;8.57;;
33403;SDS011;19751;40.274;18.268;2023-02-28T06:24:53;42.75;;;9.07;;
33403;SDS011;19751;40.274;18.268;2023-02-28T06:27:20;40.88;;;9.65;;
33403;SDS011;19751;40.274;18.268;2023-02-28T06:29:45;41.03;;;6.70;;
33403;SDS011;19751;40.274;18.268;2023-02-28T06:32:11;33.58;;;8.27;;
33403;SDS011;19751;40.274;18.268;2023-02-28T06:34:36;32.38;;;6.13;;
33403;SDS011;19751;40.274;18.268;2023-02-28T06:37:02;34.53;;;6.35;;
33403;SDS011;19751;40.274;18.268;2023-02-28T06:39:28;41.30;;;7.13;;
33403;SDS011;19751;40.274;18.268;2023-02-28T06:41:54;38.97;;;8.73;;
33403;SDS011;19751;40.274;18.268;2023-02-28T06:44:20;37.72;;;8.88;;
33403;SDS011;19751;40.274;18.268;2023-02-28T06:46:47;57.95;;;9.75;;
33403;SDS011;19751;40.274;18.268;2023-02-28T06:49:12;44.65;;;8.63;;
33403;SDS011;19751;40.274;18.268;2023-02-28T06:51:38;47.35;;;9.73;;
33403;SDS011;19751;40.274;18.268;2023-02-28T06:54:07;53.72;;;9.25;;
33403;SDS011;19751;40.274;18.268;2023-02-28T06:56:35;47.17;;;9.55;;
33403;SDS011;19751;40.274;18.268;2023-02-28T06:59:01;54.03;;;11.40;;
33403;SDS011;19751;40.274;18.268;2023-02-28T07:01:27;49.65;;;15.50;;
33403;SDS011;19751;40.274;18.268;2023-02-28T07:03:53;76.60;;;21.27;;
33403;SDS011;19751;40.274;18.268;2023-02-28T07:06:20;81.93;;;18.00;;
33403;SDS011;19751;40.274;18.268;2023-02-28T07:08:47;51.63;;;12.52;;
33403;SDS011;19751;40.274;18.268;2023-02-28T07:11:14;61.80;;;12.98;;
33403;SDS011;19751;40.274;18.268;2023-02-28T07:13:39;44.20;;;12.65;;
33403;SDS011;19751;40.274;18.268;2023-02-28T07:16:06;70.22;;;12.43;;
33403;SDS011;19751;40.274;18.268;2023-02-28T07:18:34;62.85;;;8.95;;
33403;SDS011;19751;40.274;18.268;2023-02-28T07:21:04;67.35;;;12.07;;
33403;SDS011;19751;40.274;18.268;2023-02-28T07:23:32;66.38;;;15.25;;
33403;SDS011;19751;40.274;18.268;2023-02-28T07:25:59;60.65;;;14.20;;
33403;SDS011;19751;40.274;18.268;2023-02-28T07:28:24;72.90;;;12.45;;
33403;SDS011;19751;40.274;18.268;2023-02-28T07:30:50;61.03;;;11.68;;
33403;SDS011;19751;40.274;18.268;2023-02-28T07:33:16;65.78;;;14.00;;
33403;SDS011;19751;40.274;18.268;2023-02-28T07:35:42;58.95;;;10.98;;
33403;SDS011;19751;40.274;18.268;2023-02-28T07:38:07;64.25;;;11.52;;
33403;SDS011;19751;40.274;18.268;2023-02-28T07:40:36;82.35;;;21.20;;
33403;SDS011;19751;40.274;18.268;2023-02-28T07:43:02;74.38;;;19.75;;
33403;SDS011;19751;40.274;18.268;2023-02-28T07:45:28;71.07;;;15.07;;
33403;SDS011;19751;40.274;18.268;2023-02-28T07:47:55;93.88;;;28.50;;
33403;SDS011;19751;40.274;18.268;2023-02-28T07:50:21;70.80;;;19.55;;
33403;SDS011;19751;40.274;18.268;2023-02-28T07:52:47;73.10;;;12.48;;
33403;SDS011;19751;40.274;18.268;2023-02-28T07:55:12;62.42;;;10.88;;
33403;SDS011;19751;40.274;18.268;2023-02-28T07:57:39;55.88;;;10.43;;
33403;SDS011;19751;40.274;18.268;2023-02-28T08:00:06;62.67;;;11.13;;
33403;SDS011;19751;40.274;18.268;2023-02-28T08:02:34;47.33;;;9.07;;
33403;SDS011;19751;40.274;18.268;2023-02-28T08:05:00;56.55;;;9.10;;
33403;SDS011;19751;40.274;18.268;2023-02-28T08:07:26;71.57;;;10.23;;
33403;SDS011;19751;40.274;18.268;2023-02-28T08:09:52;46.15;;;10.00;;
33403;SDS011;19751;40.274;18.268;2023-02-28T08:12:17;70.65;;;10.52;;
33403;SDS011;19751;40.274;18.268;2023-02-28T08:14:43;55.08;;;10.07;;
33403;SDS011;19751;40.274;18.268;2023-02-28T08:17:09;60.75;;;9.60;;
33403;SDS011;19751;40.274;18.268;2023-02-28T08:19:35;55.15;;;8.35;;
33403;SDS011;19751;40.274;18.268;2023-02-28T08:22:01;63.38;;;8.55;;
33403;SDS011;19751;40.274;18.268;2023-02-28T08:24:26;45.17;;;7.88;;
33403;SDS011;19751;40.274;18.268;2023-02-28T08:26:52;43.75;;;8.25;;
33403;SDS011;19751;40.274;18.268;2023-02-28T08:29:17;47.88;;;9.43;;
33403;SDS011;19751;40.274;18.268;2023-02-28T08:31:43;61.85;;;9.43;;
33403;SDS011;19751;40.274;18.268;2023-02-28T08:34:09;47.05;;;8.80;;
33403;SDS011;19751;40.274;18.268;2023-02-28T08:36:37;59.83;;;10.02;;
33403;SDS011;19751;40.274;18.268;2023-02-28T08:39:03;56.83;;;11.10;;
33403;SDS011;19751;40.274;18.268;2023-02-28T08:41:29;33.72;;;5.68;;
33403;SDS011;19751;40.274;18.268;2023-02-28T08:43:55;54.88;;;8.10;;
33403;SDS011;19751;40.274;18.268;2023-02-28T08:46:22;46.83;;;7.22;;
33403;SDS011;19751;40.274;18.268;2023-02-28T08:48:51;37.72;;;6.38;;
33403;SDS011;19751;40.274;18.268;2023-02-28T08:51:18;74.05;;;10.05;;
33403;SDS011;19751;40.274;18.268;2023-02-28T08:53:51;54.20;;;9.93;;
33403;SDS011;19751;40.274;18.268;2023-02-28T08:56:17;42.40;;;8.32;;
33403;SDS011;19751;40.274;18.268;2023-02-28T08:58:43;46.25;;;10.15;;
33403;SDS011;19751;40.274;18.268;2023-02-28T09:01:13;44.72;;;6.95;;
33403;SDS011;19751;40.274;18.268;2023-02-28T09:03:40;58.88;;;10.43;;
33403;SDS011;19751;40.274;18.268;2023-02-28T09:06:06;47.22;;;7.32;;
33403;SDS011;19751;40.274;18.268;2023-02-28T09:08:33;58.75;;;7.38;;
33403;SDS011;19751;40.274;18.268;2023-02-28T09:10:59;42.97;;;7.90;;
33403;SDS011;19751;40.274;18.268;2023-02-28T09:13:25;43.75;;;7.05;;
33403;SDS011;19751;40.274;18.268;2023-02-28T09:15:51;63.20;;;8.80;;
33403;SDS011;19751;40.274;18.268;2023-02-28T09:18:17;50.80;;;8.32;;
33403;SDS011;19751;40.274;18.268;2023-02-28T09:20:43;47.83;;;8.43;;
33403;SDS011;19751;40.274;18.268;2023-02-28T09:23:09;51.60;;;8.00;;
33403;SDS011;19751;40.274;18.268;2023-02-28T09:25:36;39.08;;;6.50;;
33403;SDS011;19751;40.274;18.268;2023-02-28T09:28:02;54.30;;;7.68;;
33403;SDS011;19751;40.274;18.268;2023-02-28T09:30:28;37.97;;;6.15;;
33403;SDS011;19751;40.274;18.268;2023-02-28T09:32:54;38.65;;;6.15;;
33403;SDS011;19751;40.274;18.268;2023-02-28T09:35:20;29.23;;;6.38;;
33403;SDS011;19751;40.274;18.268;2023-02-28T09:37:47;49.70;;;7.35;;
33403;SDS011;19751;40.274;18.268;2023-02-28T09:40:14;41.40;;;8.55;;
33403;SDS011;19751;40.274;18.268;2023-02-28T09:42:43;53.10;;;8.15;;
33403;SDS011;19751;40.274;18.268;2023-02-28T09:45:32;48.75;;;8.60;;
33403;SDS011;19751;40.274;18.268;2023-02-28T09:48:03;37.97;;;7.85;;
33403;SDS011;19751;40.274;18.268;2023-02-28T09:50:38;35.75;;;7.10;;
33403;SDS011;19751;40.274;18.268;2023-02-28T09:53:40;52.85;;;9.10;;
33403;SDS011;19751;40.274;18.268;2023-02-28T09:58:34;49.53;;;8.48;;
33403;SDS011;19751;40.274;18.268;2023-02-28T10:01:09;36.92;;;8.68;;
33403;SDS011;19751;40.274;18.268;2023-02-28T10:03:43;48.17;;;7.15;;
33403;SDS011;19751;40.274;18.268;2023-02-28T10:11:26;30.70;;;4.47;;
33403;SDS011;19751;40.274;18.268;2023-02-28T10:13:59;49.13;;;9.80;;
33403;SDS011;19751;40.274;18.268;2023-02-28T10:19:20;56.08;;;8.75;;
33403;SDS011;19751;40.274;18.268;2023-02-28T10:21:48;44.63;;;7.05;;
33403;SDS011;19751;40.274;18.268;2023-02-28T10:24:37;44.97;;;7.78;;
33403;SDS011;19751;40.274;18.268;2023-02-28T10:27:13;21.80;;;5.13;;
33403;SDS011;19751;40.274;18.268;2023-02-28T10:29:47;32.33;;;5.57;;
33403;SDS011;19751;40.274;18.268;2023-02-28T10:32:25;23.70;;;5.32;;
33403;SDS011;19751;40.274;18.268;2023-02-28T10:37:30;36.70;;;6.50;;
33403;SDS011;19751;40.274;18.268;2023-02-28T10:39:57;53.63;;;10.15;;
33403;SDS011;19751;40.274;18.268;2023-02-28T10:42:24;38.85;;;7.57;;
33403;SDS011;19751;40.274;18.268;2023-02-28T10:47:52;52.63;;;13.15;;
33403;SDS011;19751;40.274;18.268;2023-02-28T10:50:50;36.90;;;7.30;;
33403;SDS011;19751;40.274;18.268;2023-02-28T10:55:59;49.17;;;7.57;;
33403;SDS011;19751;40.274;18.268;2023-02-28T10:58:29;35.38;;;6.43;;
33403;SDS011;19751;40.274;18.268;2023-02-28T11:01:15;32.58;;;5.07;;
33403;SDS011;19751;40.274;18.268;2023-02-28T11:03:47;50.88;;;9.48;;
33403;SDS011;19751;40.274;18.268;2023-02-28T11:06:15;39.55;;;8.10;;
33403;SDS011;19751;40.274;18.268;2023-02-28T11:08:45;36.97;;;9.10;;
33403;SDS011;19751;40.274;18.268;2023-02-28T11:11:16;32.22;;;6.30;;
33403;SDS011;19751;40.274;18.268;2023-02-28T11:13:42;23.13;;;6.22;;
33403;SDS011;19751;40.274;18.268;2023-02-28T11:16:10;21.67;;;4.93;;
33403;SDS011;19751;40.274;18.268;2023-02-28T11:21:24;25.65;;;5.10;;
33403;SDS011;19751;40.274;18.268;2023-02-28T11:24:00;34.38;;;6.78;;
33403;SDS011;19751;40.274;18.268;2023-02-28T11:26:42;40.78;;;9.20;;
33403;SDS011;19751;40.274;18.268;2023-02-28T11:29:18;33.75;;;5.88;;
33403;SDS011;19751;40.274;18.268;2023-02-28T11:32:30;46.13;;;7.63;;
33403;SDS011;19751;40.274;18.268;2023-02-28T11:34:37;36.40;;;6.05;;
33403;SDS011;19751;40.274;18.268;2023-02-28T11:37:05;19.33;;;5.65;;
33403;SDS011;19751;40.274;18.268;2023-02-28T11:39:36;28.77;;;5.60;;
33403;SDS011;19751;40.274;18.268;2023-02-28T11:56:18;33.85;;;6.75;;
33403;SDS011;19751;40.274;18.268;2023-02-28T12:17:38;34.53;;;7.30;;
33403;SDS011;19751;40.274;18.268;2023-02-28T12:20:18;19.10;;;3.53;;
33403;SDS011;19751;40.274;18.268;2023-02-28T12:28:38;16.67;;;3.45;;
33403;SDS011;19751;40.274;18.268;2023-02-28T12:31:12;22.20;;;3.60;;
33403;SDS011;19751;40.274;18.268;2023-02-28T12:33:50;15.13;;;3.85;;
33403;SDS011;19751;40.274;18.268;2023-02-28T12:36:19;24.02;;;3.97;;
33403;SDS011;19751;40.274;18.268;2023-02-28T12:38:52;19.52;;;3.88;;
33403;SDS011;19751;40.274;18.268;2023-02-28T12:41:40;11.80;;;3.17;;
33403;SDS011;19751;40.274;18.268;2023-02-28T12:44:15;30.13;;;5.10;;
33403;SDS011;19751;40.274;18.268;2023-02-28T12:46:47;16.70;;;3.67;;
33403;SDS011;19751;40.274;18.268;2023-02-28T12:49:17;16.70;;;4.07;;
33403;SDS011;19751;40.274;18.268;2023-02-28T12:51:49;17.48;;;3.95;;
33403;SDS011;19751;40.274;18.268;2023-02-28T12:54:19;18.58;;;3.92;;
33403;SDS011;19751;40.274;18.268;2023-02-28T13:07:42;18.25;;;3.90;;
33403;SDS011;19751;40.274;18.268;2023-02-28T13:10:23;21.77;;;4.25;;
33403;SDS011;19751;40.274;18.268;2023-02-28T13:12:49;24.55;;;4.38;;
33403;SDS011;19751;40.274;18.268;2023-02-28T13:15:18;17.90;;;3.53;;
33403;SDS011;19751;40.274;18.268;2023-02-28T13:17:49;22.77;;;4.47;;
33403;SDS011;19751;40.274;18.268;2023-02-28T13:20:36;14.50;;;3.78;;
33403;SDS011;19751;40.274;18.268;2023-02-28T13:23:55;24.08;;;4.78;;
33403;SDS011;19751;40.274;18.268;2023-02-28T13:26:05;21.90;;;4.35;;
33403;SDS011;19751;40.274;18.268;2023-02-28T13:31:18;21.90;;;3.47;;
33403;SDS011;19751;40.274;18.268;2023-02-28T13:36:28;17.05;;;3.10;;
33403;SDS011;19751;40.274;18.268;2023-02-28T13:38:57;18.65;;;3.53;;
33403;SDS011;19751;40.274;18.268;2023-02-28T13:46:24;33.63;;;4.72;;
33403;SDS011;19751;40.274;18.268;2023-02-28T13:48:50;35.25;;;5.63;;
33403;SDS011;19751;40.274;18.268;2023-02-28T13:54:31;36.22;;;6.13;;
33403;SDS011;19751;40.274;18.268;2023-02-28T14:05:13;33.28;;;5.32;;
33403;SDS011;19751;40.274;18.268;2023-02-28T14:07:50;30.02;;;4.75;;
33403;SDS011;19751;40.274;18.268;2023-02-28T14:15:28;31.35;;;5.22;;
33403;SDS011;19751;40.274;18.268;2023-02-28T14:17:55;30.10;;;5.07;;
33403;SDS011;19751;40.274;18.268;2023-02-28T14:20:25;36.85;;;5.68;;
33403;SDS011;19751;40.274;18.268;2023-02-28T14:29:23;43.20;;;5.90;;
33403;SDS011;19751;40.274;18.268;2023-02-28T14:34:35;39.58;;;7.22;;
33403;SDS011;19751;40.274;18.268;2023-02-28T14:37:13;40.78;;;5.22;;
33403;SDS011;19751;40.274;18.268;2023-02-28T14:39:44;40.10;;;6.25;;
33403;SDS011;19751;40.274;18.268;2023-02-28T14:45:18;23.27;;;3.75;;
33403;SDS011;19751;40.274;18.268;2023-02-28T14:47:45;26.70;;;5.05;;
33403;SDS011;19751;40.274;18.268;2023-02-28T14:50:18;22.33;;;5.15;;
33403;SDS011;19751;40.274;18.268;2023-02-28T14:52:46;28.63;;;6.00;;
33403;SDS011;19751;40.274;18.268;2023-02-28T14:55:14;41.03;;;7.55;;
33403;SDS011;19751;40.274;18.268;2023-02-28T14:57:50;29.38;;;4.65;;
33403;SDS011;19751;40.274;18.268;2023-02-28T15:00:24;23.10;;;5.32;;
33403;SDS011;19751;40.274;18.268;2023-02-28T15:05:52;20.67;;;3.70;;
33403;SDS011;19751;40.274;18.268;2023-02-28T15:08:22;31.30;;;7.43;;
33403;SDS011;19751;40.274;18.268;2023-02-28T15:11:07;29.23;;;3.95;;
33403;SDS011;19751;40.274;18.268;2023-02-28T15:13:47;24.67;;;5.15;;
33403;SDS011;19751;40.274;18.268;2023-02-28T15:16:19;23.15;;;4.22;;
33403;SDS011;19751;40.274;18.268;2023-02-28T15:21:15;30.50;;;5.13;;
33403;SDS011;19751;40.274;18.268;2023-02-28T15:23:58;30.33;;;5.78;;
33403;SDS011;19751;40.274;18.268;2023-02-28T15:26:32;18.02;;;4.00;;
33403;SDS011;19751;40.274;18.268;2023-02-28T15:29:22;29.35;;;3.95;;
33403;SDS011;19751;40.274;18.268;2023-02-28T15:31:51;40.55;;;6.50;;
33403;SDS011;19751;40.274;18.268;2023-02-28T15:34:29;25.50;;;4.05;;
33403;SDS011;19751;40.274;18.268;2023-02-28T15:37:00;20.92;;;4.22;;
33403;SDS011;19751;40.274;18.268;2023-02-28T15:39:27;28.98;;;5.03;;
33403;SDS011;19751;40.274;18.268;2023-02-28T15:42:09;27.35;;;4.93;;
33403;SDS011;19751;40.274;18.268;2023-02-28T15:44:42;24.83;;;4.00;;
33403;SDS011;19751;40.274;18.268;2023-02-28T15:49:52;26.20;;;6.18;;
33403;SDS011;19751;40.274;18.268;2023-02-28T15:52:28;20.70;;;3.97;;
33403;SDS011;19751;40.274;18.268;2023-02-28T15:54:59;33.33;;;9.13;;
33403;SDS011;19751;40.274;18.268;2023-02-28T15:57:44;9.45;;;2.85;;
33403;SDS011;19751;40.274;18.268;2023-02-28T16:00:12;18.65;;;4.07;;
33403;SDS011;19751;40.274;18.268;2023-02-28T16:02:40;27.92;;;4.50;;
33403;SDS011;19751;40.274;18.268;2023-02-28T16:07:32;27.50;;;5.10;;
33403;SDS011;19751;40.274;18.268;2023-02-28T16:09:59;18.25;;;3.63;;
33403;SDS011;19751;40.274;18.268;2023-02-28T16:12:32;25.75;;;4.35;;
33403;SDS011;19751;40.274;18.268;2023-02-28T16:15:01;17.55;;;4.90;;
33403;SDS011;19751;40.274;18.268;2023-02-28T16:17:33;24.02;;;4.75;;
33403;SDS011;19751;40.274;18.268;2023-02-28T16:20:00;27.30;;;6.05;;
33403;SDS011;19751;40.274;18.268;2023-02-28T16:22:25;28.33;;;7.88;;
33403;SDS011;19751;40.274;18.268;2023-02-28T16:24:56;22.38;;;5.35;;
33403;SDS011;19751;40.274;18.268;2023-02-28T16:27:23;25.85;;;4.40;;
33403;SDS011;19751;40.274;18.268;2023-02-28T16:29:53;23.70;;;5.20;;
33403;SDS011;19751;40.274;18.268;2023-02-28T16:32:19;31.67;;;5.70;;
33403;SDS011;19751;40.274;18.268;2023-02-28T16:34:44;18.85;;;3.67;;
33403;SDS011;19751;40.274;18.268;2023-02-28T16:37:14;27.92;;;5.10;;
33403;SDS011;19751;40.274;18.268;2023-02-28T16:39:41;33.15;;;4.60;;
33403;SDS011;19751;40.274;18.268;2023-02-28T16:42:11;34.72;;;6.65;;
33403;SDS011;19751;40.274;18.268;2023-02-28T16:44:41;30.60;;;5.68;;
33403;SDS011;19751;40.274;18.268;2023-02-28T16:47:08;31.30;;;5.82;;
33403;SDS011;19751;40.274;18.268;2023-02-28T16:49:36;33.40;;;7.07;;
33403;SDS011;19751;40.274;18.268;2023-02-28T16:52:01;26.35;;;5.20;;
33403;SDS011;19751;40.274;18.268;2023-02-28T16:54:27;21.42;;;4.30;;
33403;SDS011;19751;40.274;18.268;2023-02-28T16:56:53;21.08;;;3.58;;
33403;SDS011;19751;40.274;18.268;2023-02-28T16:59:19;24.65;;;5.65;;
33403;SDS011;19751;40.274;18.268;2023-02-28T17:01:48;23.45;;;5.03;;
33403;SDS011;19751;40.274;18.268;2023-02-28T17:04:14;27.52;;;4.97;;
33403;SDS011;19751;40.274;18.268;2023-02-28T17:06:40;20.77;;;4.53;;
33403;SDS011;19751;40.274;18.268;2023-02-28T17:09:08;22.08;;;4.55;;
33403;SDS011;19751;40.274;18.268;2023-02-28T17:11:44;22.38;;;3.78;;
33403;SDS011;19751;40.274;18.268;2023-02-28T17:14:11;22.65;;;3.85;;